Kechi, Kansas
Current Conditions -  °F | °C
As of 10:54 PM on Wednesday 22 Oct 2014 (Local Time) from KAAO Reporting Station
Overcast Overcast  
Wind Chill: 67°   Ceiling: 4200
Heat Index: 67°   Visibility: 10mi
Dew Point: 57°   Wind: 14mph
Humidity: 70%   Direction: 220°SW
Pressure: 30.1"   Gusts: NA
Location:  37.8°N, 97.28°W
Report Text: KAAO 230354Z AUTO 22012KT 10SM BKN042 BKN055 OVC095 19/14 A3010 RMK AO2 RAB14E29 SLP183 P0000 T01940139 $
Loading
Personal Weather Stations






























Interactive Weather Map New forecast layout! Learn more

10-Day Weather Forecast

Advertisements
Track Severe Weather on mobile